Albion, NJ

2:30 PM EDT on October 23, 2014 (GMT -0400)
Pinecrest | Change Station
CLOSE
Current Station
Personal Weather Station
Location: West Berlin, NJ
Elevation: 50 m
Nearby Weather Stations

Elev 50 m 39.81 °N, 74.94 °W | Updated 1 second ago

Overcast
Overcast
11.4 °C
Feels Like 11.4 °C
N
14.3
Wind Variable Wind from NNW
Gusts 22.0 km/h

Today
High -- | Low -- °C
--% Chance of Precip.
Yesterday
High -- | Low -- °C
Precip. -- mm
7:18 AM 6:09 PM
Waning Crescent, 0% visible
Pressure 1007 hPa
Visibility 16.1 kilometers
Clouds Mostly Cloudy 1219 m
Overcast 1493 m
Dew Point 9 °C
Humidity 83%
Rainfall 4 mm
Snow Depth Not available.
UV 1 out of 12
Pollen .10 out of 12
Ozone Good
PM2.5 Good
Flu Activity Sporadic
METAR KVAY 231754Z AUTO 30007KT 10SM -RA BKN040 OVC049 12/08 A2975 RMK AO2 RAB1658 SLP073 P0000 60004 T01220083 10122 20100 58001

More Conditions Fewer Conditions

Pressure 1007 hPa
Visibility 16.1 kilometers
Clouds Mostly Cloudy 1219 m
Overcast 1493 m
Dew Point 9 °C
Humidity 83%
Rainfall 4 mm
Snow Depth Not available.
UV 1 out of 12
Pollen .10 out of 12
Ozone Good
PM2.5 Good
Flu Activity Sporadic
METAR KVAY 231754Z AUTO 30007KT 10SM -RA BKN040 OVC049 12/08 A2975 RMK AO2 RAB1658 SLP073 P0000 60004 T01220083 10122 20100 58001

More Conditions Fewer Conditions

10-Day Weather Forecast

Almanac

Astronomy

Oct. 23, 2014 Rise Set
Actual Time 7:18 AM EDT 6:09 PM EDT
Civil Twilight 6:50 AM EDT 6:36 PM EDT
Nautical Twilight 6:19 AM EDT 7:08 PM EDT
Astronomical Twilight 5:48 AM EDT 7:39 PM EDT
Moon 6:55 AM EDT 6:09 PM EDT
Length of Visible Light 11h 45m
Length of Day
10h 50m
Tomorrow will be 2m 26s shorter.
Waning Crescent, 0% of the Moon is Illuminated
Today
Waning Crescent
Oct 23
New
Oct 30
First Quarter
Nov 6
Full
Nov 14
Last Quarter

Today's Extremes

State Highs State Lows

Community

WunderPhotos

Upload Photos

1,764,338 photos uploaded!

WunderBlogs® & News

Nearby

Air Quality

  Air Quality AQ Index Pollutant
Yesterday Good
OZONE
Yesterday Good
PM2.5
Current Good
PM2.5
Current Good
OZONE
Thursday Good
PM2.5
Thursday Good
OZONE
Friday Good
PM2.5
Friday Good
OZONE

Snow Depth

Station Depth Elevation
No new snow has been reported.

Earthquake Activity

City Distance Mag. Time & Date
No recent earthquake activity has been reported nearby.
Minimum magnitude displayed is 2.5.

Coastal Water Temperatures

Place Temperature
No Stations Reporting

Nearby Weather Stations